Time;durP1;ratioP1;P1;durP2;ratioP2;P2;SDS_P1;SDS_P2;PMS_P1;PMS_P2;Temp;Humidity;BMP_temperature;BMP_pressure;BME280_temperature;BME280_humidity;BME280_pressure;Samples;Min_cycle;Max_cycle;Signal;HPM_P1;HPM_P2
2023/10/20 00:01:00;;;;;;;;;;;15.70;99.90;;;;;;5080399;28;20026;-80
2023/10/20 00:03:26;;;;;;;;;;;15.70;99.90;;;;;;5093676;28;19915;-81
2023/10/20 00:05:52;;;;;;;;;;;15.70;99.90;;;;;;5087480;28;19923;-78
2023/10/20 00:08:17;;;;;;;;;;;15.70;99.90;;;;;;5079615;28;19957;-81
2023/10/20 00:10:43;;;;;;;;;;;15.60;99.90;;;;;;5078933;28;19909;-79
2023/10/20 00:13:09;;;;;;;;;;;15.60;99.90;;;;;;5079580;28;20384;-77
2023/10/20 00:15:35;;;;;;;;;;;15.50;99.90;;;;;;5092682;28;19912;-80
2023/10/20 00:18:01;;;;;;;;;;;15.60;99.90;;;;;;5092885;28;19919;-80
2023/10/20 00:20:27;;;;;;;;;;;15.60;99.90;;;;;;5077522;28;19909;-79
2023/10/20 00:22:52;;;;;;;;;;;15.50;99.90;;;;;;5093158;28;20430;-79
2023/10/20 00:25:18;;;;;;;;;;;15.40;99.90;;;;;;5093352;28;20433;-79
2023/10/20 00:27:45;;;;;;;;;;;15.50;99.90;;;;;;5094842;28;19920;-79
2023/10/20 00:30:11;;;;;;;;;;;15.50;99.90;;;;;;5093500;28;19908;-79
2023/10/20 00:32:40;;;;;;;;;;;15.50;99.90;;;;;;5086961;28;19955;-81
2023/10/20 00:35:06;;;;;;;;;;;15.40;99.90;;;;;;5081193;28;19991;-81
2023/10/20 00:37:32;;;;;;;;;;;15.40;99.90;;;;;;5084663;28;19961;-81
2023/10/20 00:39:57;;;;;;;;;;;15.40;99.90;;;;;;5081050;28;19948;-81
2023/10/20 00:42:23;;;;;;;;;;;15.30;99.90;;;;;;5084798;28;19953;-80
2023/10/20 00:44:49;;;;;;;;;;;15.30;99.90;;;;;;5081217;28;20367;-79
2023/10/20 00:47:15;;;;;;;;;;;15.30;99.90;;;;;;5083889;28;19942;-80
2023/10/20 00:49:41;;;;;;;;;;;15.30;99.90;;;;;;5081002;28;19908;-79
2023/10/20 00:52:07;;;;;;;;;;;15.30;99.90;;;;;;5086024;28;19941;-82
2023/10/20 00:54:33;;;;;;;;;;;15.30;99.90;;;;;;5080364;28;19912;-84
2023/10/20 00:56:59;;;;;;;;;;;15.30;99.90;;;;;;5079913;28;20015;-87
2023/10/20 00:59:24;;;;;;;;;;;15.20;99.90;;;;;;5078438;28;19912;-81
2023/10/20 01:01:50;;;;;;;;;;;15.20;99.90;;;;;;5081273;28;19919;-82
2023/10/20 01:04:15;;;;;;;;;;;15.10;99.90;;;;;;5069407;28;20395;-85
2023/10/20 01:06:43;;;;;;;;;;;15.10;99.90;;;;;;5081865;28;20299;-81
2023/10/20 01:09:10;;;;;;;;;;;15.10;99.90;;;;;;5079454;28;19915;-81
2023/10/20 01:11:36;;;;;;;;;;;15.10;99.90;;;;;;5082377;28;19916;-84
2023/10/20 01:14:01;;;;;;;;;;;15.10;99.90;;;;;;5079635;28;19971;-86
2023/10/20 01:16:27;;;;;;;;;;;15.10;99.90;;;;;;5081593;28;20481;-83
2023/10/20 01:18:53;;;;;;;;;;;15.10;99.90;;;;;;5079663;28;20011;-84
2023/10/20 01:21:19;;;;;;;;;;;15.10;99.90;;;;;;5082565;28;19932;-85
2023/10/20 01:23:44;;;;;;;;;;;15.00;99.90;;;;;;5079619;28;19999;-86
2023/10/20 01:26:10;;;;;;;;;;;15.00;99.90;;;;;;5080521;28;20380;-85
2023/10/20 01:28:35;;;;;;;;;;;15.00;99.90;;;;;;5078291;28;20462;-85
2023/10/20 01:31:01;;;;;;;;;;;15.00;99.90;;;;;;5082855;28;19916;-84
2023/10/20 01:33:26;;;;;;;;;;;15.00;99.90;;;;;;5078287;28;20285;-85
2023/10/20 01:35:52;;;;;;;;;;;15.00;99.90;;;;;;5082738;28;19966;-85
2023/10/20 01:38:17;;;;;;;;;;;15.00;99.90;;;;;;5079374;28;19975;-84
2023/10/20 01:40:46;;;;;;;;;;;15.10;99.90;;;;;;5078160;28;19984;-86
2023/10/20 01:43:11;;;;;;;;;;;15.10;99.90;;;;;;5070005;28;20291;-85
2023/10/20 01:45:37;;;;;;;;;;;15.00;99.90;;;;;;5081771;28;19908;-84
2023/10/20 01:48:03;;;;;;;;;;;15.10;99.90;;;;;;5079430;28;20000;-83
2023/10/20 01:50:28;;;;;;;;;;;15.10;99.90;;;;;;5081810;28;20308;-80
2023/10/20 01:52:54;;;;;;;;;;;15.20;99.90;;;;;;5079253;28;20020;-80
2023/10/20 01:55:19;;;;;;;;;;;15.20;99.90;;;;;;5081497;28;20403;-79
2023/10/20 01:57:45;;;;;;;;;;;15.30;99.90;;;;;;5077991;28;20394;-81
2023/10/20 02:00:13;;;;;;;;;;;15.30;99.90;;;;;;5082025;28;19915;-82
2023/10/20 02:02:39;;;;;;;;;;;15.30;99.90;;;;;;5076737;28;19959;-84
2023/10/20 02:05:08;;;;;;;;;;;15.30;99.90;;;;;;5080564;28;19957;-80
2023/10/20 02:07:33;;;;;;;;;;;15.30;99.90;;;;;;5083846;28;19908;-80
2023/10/20 02:09:59;;;;;;;;;;;15.30;99.90;;;;;;5086144;28;19962;-84
2023/10/20 02:12:24;;;;;;;;;;;15.40;99.90;;;;;;5075172;28;19917;-80
2023/10/20 02:14:50;;;;;;;;;;;15.40;99.90;;;;;;5081985;28;20334;-81
2023/10/20 02:17:15;;;;;;;;;;;15.40;99.90;;;;;;5082124;28;19908;-80
2023/10/20 02:19:41;;;;;;;;;;;15.40;99.90;;;;;;5086672;28;19912;-81
2023/10/20 02:22:06;;;;;;;;;;;15.40;99.90;;;;;;5081925;28;19916;-80
2023/10/20 02:24:32;;;;;;;;;;;15.30;99.90;;;;;;5083645;28;19961;-82
2023/10/20 02:26:58;;;;;;;;;;;15.30;99.90;;;;;;5078230;28;20007;-82
2023/10/20 02:29:23;;;;;;;;;;;15.30;99.90;;;;;;5082441;28;19908;-85
2023/10/20 02:31:49;;;;;;;;;;;15.30;99.90;;;;;;5078458;28;19920;-83
2023/10/20 02:34:15;;;;;;;;;;;15.20;99.90;;;;;;5082348;28;19939;-83
2023/10/20 02:36:40;;;;;;;;;;;15.20;99.90;;;;;;5079173;28;19908;-83
2023/10/20 02:39:06;;;;;;;;;;;15.20;99.90;;;;;;5082589;28;19914;-81
2023/10/20 02:41:31;;;;;;;;;;;15.20;99.90;;;;;;5088241;28;20387;-83
2023/10/20 02:43:57;;;;;;;;;;;15.20;99.90;;;;;;5090642;28;20391;-89
2023/10/20 02:46:22;;;;;;;;;;;15.20;99.90;;;;;;5087835;28;20018;-83
2023/10/20 02:48:48;;;;;;;;;;;15.20;99.90;;;;;;5089607;28;19912;-83
2023/10/20 02:51:14;;;;;;;;;;;15.10;99.90;;;;;;5087271;28;19913;-84
2023/10/20 02:53:40;;;;;;;;;;;15.10;99.90;;;;;;5091703;28;20340;-82
2023/10/20 02:56:15;;;;;;;;;;;15.00;99.90;;;;;;5086928;28;19917;-86
2023/10/20 02:58:44;;;;;;;;;;;14.90;99.90;;;;;;5089734;28;19912;-84
2023/10/20 03:01:11;;;;;;;;;;;14.80;99.90;;;;;;5084188;28;20376;-86
2023/10/20 03:03:37;;;;;;;;;;;14.70;99.90;;;;;;5075755;28;19955;-85
2023/10/20 03:06:03;;;;;;;;;;;14.60;99.90;;;;;;5069841;28;19908;-82
2023/10/20 03:08:29;;;;;;;;;;;14.50;99.90;;;;;;5083412;28;19912;-81
2023/10/20 03:10:56;;;;;;;;;;;14.50;99.90;;;;;;5086240;28;19967;-81
2023/10/20 03:13:22;;;;;;;;;;;14.40;99.90;;;;;;5088869;28;19931;-81
2023/10/20 03:15:48;;;;;;;;;;;14.30;99.90;;;;;;5091843;28;19909;-80
2023/10/20 03:18:14;;;;;;;;;;;14.20;99.90;;;;;;5091989;28;19912;-80
2023/10/20 03:20:40;;;;;;;;;;;14.20;99.90;;;;;;5090415;28;19908;-80
2023/10/20 03:23:05;;;;;;;;;;;14.20;99.90;;;;;;5081466;28;19909;-80
2023/10/20 03:25:33;;;;;;;;;;;14.20;99.90;;;;;;5089042;28;19970;-81
2023/10/20 03:27:58;;;;;;;;;;;14.20;99.90;;;;;;5091088;28;19959;-83
2023/10/20 03:30:24;;;;;;;;;;;14.20;99.90;;;;;;5091876;28;19965;-82
2023/10/20 03:32:50;;;;;;;;;;;14.20;99.90;;;;;;5092167;28;19937;-82
2023/10/20 03:35:16;;;;;;;;;;;14.30;99.90;;;;;;5089917;28;19934;-82
2023/10/20 03:37:41;;;;;;;;;;;14.30;99.90;;;;;;5091721;28;19912;-81
2023/10/20 03:40:16;;;;;;;;;;;14.30;99.90;;;;;;5091281;28;19947;-82
2023/10/20 03:42:43;;;;;;;;;;;14.20;99.90;;;;;;5089021;28;19912;-82
2023/10/20 03:45:09;;;;;;;;;;;14.20;99.90;;;;;;5091220;28;19908;-83
2023/10/20 03:47:38;;;;;;;;;;;14.20;99.90;;;;;;5089815;28;19919;-82
2023/10/20 03:50:14;;;;;;;;;;;14.20;99.90;;;;;;5093059;28;19909;-84
2023/10/20 03:52:41;;;;;;;;;;;14.20;99.90;;;;;;5088430;28;19993;-83
2023/10/20 03:55:08;;;;;;;;;;;14.20;99.90;;;;;;5092589;28;20364;-83
2023/10/20 03:57:34;;;;;;;;;;;14.10;99.90;;;;;;5079489;28;20327;-83
2023/10/20 04:00:14;;;;;;;;;;;14.10;99.90;;;;;;5092123;28;19919;-81
2023/10/20 04:02:40;;;;;;;;;;;14.00;99.90;;;;;;5089353;28;19923;-83
2023/10/20 04:05:07;;;;;;;;;;;14.00;99.90;;;;;;5084170;28;19912;-83
2023/10/20 04:07:32;;;;;;;;;;;13.90;99.90;;;;;;5092520;28;19912;-83
2023/10/20 04:09:59;;;;;;;;;;;13.80;99.90;;;;;;5093892;28;19999;-82
2023/10/20 04:12:24;;;;;;;;;;;13.80;99.90;;;;;;5078415;28;20121;-82
2023/10/20 04:14:53;;;;;;;;;;;13.80;99.90;;;;;;5079854;28;20007;-83
2023/10/20 04:17:19;;;;;;;;;;;13.70;99.90;;;;;;5080145;28;20386;-83
2023/10/20 04:19:45;;;;;;;;;;;13.70;99.90;;;;;;5089962;28;19912;-81
2023/10/20 04:22:13;;;;;;;;;;;13.60;99.90;;;;;;5095888;28;19912;-82
2023/10/20 04:24:39;;;;;;;;;;;13.60;99.90;;;;;;5093656;28;20287;-81
2023/10/20 04:27:05;;;;;;;;;;;13.50;99.90;;;;;;5095603;28;19916;-83
2023/10/20 04:29:47;;;;;;;;;;;13.50;99.90;;;;;;5095714;28;20554;-82
2023/10/20 04:54:07;;;;;;;;;;;13.00;99.90;;;;;;5087111;28;20347;-83
2023/10/20 04:56:37;;;;;;;;;;;13.00;99.90;;;;;;5083508;28;19908;-83
2023/10/20 04:59:09;;;;;;;;;;;13.00;99.90;;;;;;5083348;28;20391;-83
2023/10/20 05:01:41;;;;;;;;;;;12.90;99.90;;;;;;5084858;28;19912;-85
2023/10/20 05:04:17;;;;;;;;;;;12.90;99.90;;;;;;5073304;28;20458;-83
2023/10/20 05:06:44;;;;;;;;;;;12.90;99.90;;;;;;5076469;28;19918;-84
2023/10/20 05:09:13;;;;;;;;;;;12.80;99.90;;;;;;5072058;28;20408;-82
2023/10/20 05:11:39;;;;;;;;;;;12.80;99.90;;;;;;5082657;28;19921;-83
2023/10/20 05:14:04;;;;;;;;;;;12.80;99.90;;;;;;5064608;28;19908;-85
2023/10/20 05:16:33;;;;;;;;;;;12.70;99.90;;;;;;5076944;28;20360;-82
2023/10/20 05:19:01;;;;;;;;;;;12.70;99.90;;;;;;5079111;28;19923;-84
2023/10/20 05:21:28;;;;;;;;;;;12.70;99.90;;;;;;5080203;28;19912;-85
2023/10/20 05:23:53;;;;;;;;;;;12.60;99.90;;;;;;5076760;28;19908;-82
2023/10/20 05:26:19;;;;;;;;;;;12.50;99.90;;;;;;5072968;28;20324;-81
2023/10/20 05:28:45;;;;;;;;;;;12.50;99.90;;;;;;5072258;28;20359;-81
2023/10/20 05:31:10;;;;;;;;;;;12.50;99.90;;;;;;5074613;28;19917;-81
2023/10/20 05:33:36;;;;;;;;;;;12.40;99.90;;;;;;5072460;28;19908;-81
2023/10/20 05:36:05;;;;;;;;;;;12.40;99.90;;;;;;5072030;28;20380;-81
2023/10/20 05:38:31;;;;;;;;;;;12.40;99.90;;;;;;5074341;28;19913;-81
2023/10/20 05:40:58;;;;;;;;;;;12.40;99.90;;;;;;5063880;28;19957;-80
2023/10/20 05:43:24;;;;;;;;;;;12.40;99.90;;;;;;5059257;28;19920;-82
2023/10/20 05:45:50;;;;;;;;;;;12.40;99.90;;;;;;5079108;28;19912;-81
2023/10/20 05:48:16;;;;;;;;;;;12.40;99.90;;;;;;5066750;28;19909;-82
2023/10/20 05:50:41;;;;;;;;;;;12.40;99.90;;;;;;5068417;28;19950;-82
2023/10/20 05:53:10;;;;;;;;;;;12.40;99.90;;;;;;5077986;28;20000;-82
2023/10/20 05:55:35;;;;;;;;;;;12.40;99.90;;;;;;5064562;28;19909;-83
2023/10/20 05:58:01;;;;;;;;;;;12.40;99.90;;;;;;5060311;28;19916;-82
2023/10/20 06:00:26;;;;;;;;;;;12.40;99.90;;;;;;5063562;28;19914;-83
2023/10/20 06:02:52;;;;;;;;;;;12.30;99.90;;;;;;5075071;28;19913;-83
2023/10/20 06:05:18;;;;;;;;;;;12.30;99.90;;;;;;5072689;28;20647;-82
2023/10/20 06:07:44;;;;;;;;;;;12.20;99.90;;;;;;5066017;28;19940;-82
2023/10/20 06:10:11;;;;;;;;;;;12.20;99.90;;;;;;5081931;28;19908;-77
2023/10/20 06:12:38;;;;;;;;;;;12.30;99.90;;;;;;5083788;28;19919;-80
2023/10/20 06:15:06;;;;;;;;;;;12.30;99.90;;;;;;5089186;28;19909;-79
2023/10/20 06:17:32;;;;;;;;;;;12.30;99.90;;;;;;5089861;28;19992;-79
2023/10/20 06:19:57;;;;;;;;;;;12.30;99.90;;;;;;5088303;28;19908;-79
2023/10/20 06:22:23;;;;;;;;;;;12.20;99.90;;;;;;5085496;28;19931;-79
2023/10/20 06:24:48;;;;;;;;;;;12.30;99.90;;;;;;5086721;28;19919;-78
2023/10/20 06:27:14;;;;;;;;;;;12.30;99.90;;;;;;5067798;28;20121;-79
2023/10/20 06:29:48;;;;;;;;;;;12.30;99.90;;;;;;5084788;28;19908;-79
2023/10/20 06:32:25;;;;;;;;;;;12.20;99.90;;;;;;5080816;28;19920;-78
2023/10/20 06:35:00;;;;;;;;;;;12.20;99.90;;;;;;5081214;28;19909;-78
2023/10/20 06:37:30;;;;;;;;;;;12.20;99.90;;;;;;5081709;28;20005;-78
2023/10/20 06:39:56;;;;;;;;;;;12.20;99.90;;;;;;5072987;28;20796;-78
2023/10/20 06:42:22;;;;;;;;;;;12.10;99.90;;;;;;5074471;28;19931;-79
2023/10/20 06:44:48;;;;;;;;;;;12.10;99.90;;;;;;5077789;28;19912;-79
2023/10/20 06:47:13;;;;;;;;;;;12.20;99.90;;;;;;5075932;28;19908;-78
2023/10/20 06:49:39;;;;;;;;;;;12.20;99.90;;;;;;5079842;28;19919;-79
2023/10/20 06:52:04;;;;;;;;;;;12.30;99.90;;;;;;5082201;28;19927;-78
2023/10/20 06:54:30;;;;;;;;;;;12.30;99.90;;;;;;5080167;28;20284;-77
2023/10/20 06:56:56;;;;;;;;;;;12.30;99.90;;;;;;5078515;28;19974;-78
2023/10/20 06:59:21;;;;;;;;;;;12.30;99.90;;;;;;5081805;28;19908;-77
2023/10/20 07:01:47;;;;;;;;;;;12.40;99.90;;;;;;5078551;28;19920;-77
2023/10/20 07:04:13;;;;;;;;;;;12.40;99.90;;;;;;5084839;28;19951;-77
2023/10/20 07:06:40;;;;;;;;;;;12.40;99.90;;;;;;5078880;28;20357;-78
2023/10/20 07:09:11;;;;;;;;;;;12.50;99.90;;;;;;5082551;28;19912;-77
2023/10/20 07:11:37;;;;;;;;;;;12.50;99.90;;;;;;5077037;28;20417;-77
2023/10/20 07:14:04;;;;;;;;;;;12.60;99.90;;;;;;5082831;28;19938;-78
2023/10/20 07:16:30;;;;;;;;;;;12.70;99.90;;;;;;5079976;28;19909;-78
2023/10/20 07:18:55;;;;;;;;;;;12.70;99.90;;;;;;5081261;28;19919;-77
2023/10/20 07:21:21;;;;;;;;;;;12.80;99.90;;;;;;5075504;28;19909;-78
2023/10/20 07:23:46;;;;;;;;;;;12.80;99.90;;;;;;5078110;28;19908;-78
2023/10/20 07:26:13;;;;;;;;;;;12.90;99.90;;;;;;5078111;28;19908;-78
2023/10/20 07:28:38;;;;;;;;;;;13.00;99.90;;;;;;5076567;28;20303;-78
2023/10/20 07:31:21;;;;;;;;;;;13.20;99.90;;;;;;5076849;28;20023;-78
2023/10/20 07:33:50;;;;;;;;;;;13.30;99.90;;;;;;5076008;28;19912;-79
2023/10/20 07:36:16;;;;;;;;;;;13.40;99.90;;;;;;5078010;28;19998;-79
2023/10/20 07:38:42;;;;;;;;;;;13.50;99.90;;;;;;5081747;28;19970;-79
2023/10/20 07:41:11;;;;;;;;;;;13.70;99.90;;;;;;5078624;28;19912;-79
2023/10/20 07:43:40;;;;;;;;;;;13.90;99.90;;;;;;5080657;28;19913;-77
2023/10/20 07:46:05;;;;;;;;;;;14.10;99.90;;;;;;5081208;28;19920;-79
2023/10/20 07:48:32;;;;;;;;;;;14.30;99.90;;;;;;5081724;28;19912;-82
2023/10/20 07:50:59;;;;;;;;;;;14.50;99.90;;;;;;5078712;28;19908;-81
2023/10/20 07:53:25;;;;;;;;;;;14.70;99.90;;;;;;5081584;28;20336;-80
2023/10/20 07:55:51;;;;;;;;;;;14.90;99.90;;;;;;5080122;28;20024;-79
2023/10/20 07:58:16;;;;;;;;;;;15.30;99.90;;;;;;5078093;28;19960;-79
2023/10/20 08:00:42;;;;;;;;;;;15.50;99.90;;;;;;5076840;28;19954;-79
2023/10/20 08:03:10;;;;;;;;;;;15.60;99.90;;;;;;5078237;28;19908;-80
2023/10/20 08:05:37;;;;;;;;;;;15.70;99.90;;;;;;5079282;28;19962;-80
2023/10/20 08:08:02;;;;;;;;;;;15.70;99.90;;;;;;5076968;28;19916;-80
2023/10/20 08:10:28;;;;;;;;;;;15.70;99.90;;;;;;5079096;28;19908;-80
2023/10/20 08:12:54;;;;;;;;;;;15.70;99.90;;;;;;5076916;28;19955;-80
2023/10/20 08:15:20;;;;;;;;;;;15.70;99.90;;;;;;5077035;28;19916;-80
2023/10/20 08:17:46;;;;;;;;;;;15.60;99.90;;;;;;5078754;28;19987;-80
2023/10/20 08:20:12;;;;;;;;;;;15.60;99.90;;;;;;5076560;28;19940;-79
2023/10/20 08:22:37;;;;;;;;;;;15.70;99.90;;;;;;5073824;28;19942;-78
2023/10/20 08:25:03;;;;;;;;;;;15.70;99.90;;;;;;5077348;28;20380;-83
2023/10/20 08:27:29;;;;;;;;;;;15.80;99.90;;;;;;5082741;28;19920;-81
2023/10/20 08:29:56;;;;;;;;;;;15.90;99.90;;;;;;5077280;28;20006;-80
2023/10/20 08:32:22;;;;;;;;;;;16.00;99.90;;;;;;5079701;28;20778;-79
2023/10/20 08:34:48;;;;;;;;;;;16.20;99.90;;;;;;5076951;28;20533;-84
2023/10/20 08:37:14;;;;;;;;;;;16.40;99.90;;;;;;5082905;28;19908;-80
2023/10/20 08:39:40;;;;;;;;;;;16.50;99.90;;;;;;5081033;28;20276;-81
2023/10/20 08:42:14;;;;;;;;;;;16.60;99.90;;;;;;5076906;28;19973;-86
2023/10/20 08:44:39;;;;;;;;;;;16.60;99.90;;;;;;5081526;28;19940;-85
2023/10/20 08:47:07;;;;;;;;;;;16.60;99.90;;;;;;5078683;28;19923;-84
2023/10/20 08:49:33;;;;;;;;;;;16.70;99.90;;;;;;5077733;28;19908;-81
2023/10/20 08:52:02;;;;;;;;;;;16.70;99.90;;;;;;5080092;28;19916;-83
2023/10/20 08:54:28;;;;;;;;;;;16.90;99.90;;;;;;5077584;28;19916;-78
2023/10/20 08:56:53;;;;;;;;;;;16.90;99.90;;;;;;5082859;28;20442;-84
2023/10/20 08:59:19;;;;;;;;;;;17.00;99.90;;;;;;5073826;28;19909;-82
2023/10/20 09:01:46;;;;;;;;;;;17.10;99.90;;;;;;5074866;28;19929;-82
2023/10/20 09:04:22;;;;;;;;;;;17.20;99.90;;;;;;5073283;28;19958;-83
2023/10/20 09:06:48;;;;;;;;;;;17.30;99.90;;;;;;5078118;28;19908;-82
2023/10/20 09:09:14;;;;;;;;;;;17.40;99.90;;;;;;5076477;28;20400;-81
2023/10/20 09:11:43;;;;;;;;;;;17.40;99.90;;;;;;5067602;28;19956;-88
2023/10/20 09:14:12;;;;;;;;;;;17.40;99.90;;;;;;5075976;28;20391;-80
2023/10/20 09:16:38;;;;;;;;;;;17.50;99.90;;;;;;5076719;28;19913;-83
2023/10/20 09:19:04;;;;;;;;;;;17.50;99.90;;;;;;5076525;28;19920;-82
2023/10/20 09:21:29;;;;;;;;;;;17.70;99.90;;;;;;5075990;28;19908;-80
2023/10/20 09:23:59;;;;;;;;;;;17.80;99.90;;;;;;5078325;28;20019;-84
2023/10/20 09:26:26;;;;;;;;;;;17.80;99.90;;;;;;5077211;28;20016;-81
2023/10/20 09:28:56;;;;;;;;;;;17.70;99.90;;;;;;5077014;28;20816;-83
2023/10/20 09:31:22;;;;;;;;;;;17.70;99.90;;;;;;5074250;28;19912;-82
2023/10/20 09:33:48;;;;;;;;;;;17.70;99.90;;;;;;5078451;28;19966;-80
2023/10/20 09:36:14;;;;;;;;;;;17.70;99.90;;;;;;5077062;28;19916;-77
2023/10/20 09:38:43;;;;;;;;;;;17.70;99.90;;;;;;5079836;28;20007;-81
2023/10/20 09:41:11;;;;;;;;;;;18.00;99.90;;;;;;5077607;28;20058;-78
2023/10/20 09:43:40;;;;;;;;;;;18.00;99.90;;;;;;5081031;28;20265;-82
2023/10/20 09:46:24;;;;;;;;;;;18.10;99.90;;;;;;5079459;28;19912;-82
2023/10/20 09:48:51;;;;;;;;;;;18.30;99.90;;;;;;5077909;28;19916;-76
2023/10/20 09:51:18;;;;;;;;;;;18.40;99.90;;;;;;5076307;28;20015;-77
2023/10/20 09:53:45;;;;;;;;;;;18.40;99.90;;;;;;5077789;28;19908;-78
2023/10/20 09:56:11;;;;;;;;;;;18.30;99.90;;;;;;5073695;28;19909;-80
2023/10/20 09:58:36;;;;;;;;;;;18.40;99.90;;;;;;5079648;28;19909;-78
2023/10/20 10:01:03;;;;;;;;;;;18.50;99.90;;;;;;5076526;28;19917;-77
2023/10/20 10:03:37;;;;;;;;;;;18.50;99.90;;;;;;5072559;28;19912;-77
2023/10/20 10:06:15;;;;;;;;;;;18.60;99.90;;;;;;5071006;28;19920;-80
2023/10/20 10:08:41;;;;;;;;;;;18.70;99.90;;;;;;5073929;28;20009;-80
2023/10/20 10:11:20;;;;;;;;;;;18.70;99.90;;;;;;5073666;28;19912;-79
2023/10/20 10:13:51;;;;;;;;;;;18.70;99.90;;;;;;5079192;28;20010;-79
2023/10/20 10:16:18;;;;;;;;;;;18.70;99.90;;;;;;5077200;28;20021;-82
2023/10/20 10:18:45;;;;;;;;;;;18.80;99.90;;;;;;5077410;28;19920;-80
2023/10/20 10:21:21;;;;;;;;;;;18.80;99.90;;;;;;5078643;28;19912;-82
2023/10/20 10:24:25;;;;;;;;;;;18.90;99.90;;;;;;5078550;28;19915;-78
2023/10/20 10:26:53;;;;;;;;;;;19.00;99.90;;;;;;5038974;28;20373;-79
2023/10/20 10:29:19;;;;;;;;;;;19.10;99.90;;;;;;5039287;28;19916;-80
2023/10/20 10:31:45;;;;;;;;;;;19.20;99.90;;;;;;5066532;28;19916;-81
2023/10/20 10:34:10;;;;;;;;;;;19.40;99.90;;;;;;5082247;28;19935;-76
2023/10/20 10:36:42;;;;;;;;;;;19.50;99.90;;;;;;5081358;28;19961;-80
2023/10/20 10:39:08;;;;;;;;;;;19.40;99.90;;;;;;5078512;28;19909;-79
2023/10/20 10:41:33;;;;;;;;;;;19.20;99.90;;;;;;5074186;28;19915;-81
2023/10/20 10:43:59;;;;;;;;;;;19.20;99.90;;;;;;5077715;28;19924;-79
2023/10/20 10:46:34;;;;;;;;;;;19.00;99.90;;;;;;5080611;28;19916;-81
2023/10/20 10:49:07;;;;;;;;;;;18.90;99.90;;;;;;5074208;28;20395;-80
2023/10/20 10:51:32;;;;;;;;;;;18.80;99.90;;;;;;5077418;28;19923;-80
2023/10/20 10:53:58;;;;;;;;;;;18.80;99.90;;;;;;5080485;28;19909;-80
2023/10/20 10:56:24;;;;;;;;;;;18.90;99.90;;;;;;5080677;28;20709;-79
2023/10/20 10:58:50;;;;;;;;;;;18.90;99.90;;;;;;5078626;28;19913;-78
2023/10/20 11:01:16;;;;;;;;;;;18.90;99.90;;;;;;5077896;28;19942;-80
2023/10/20 11:03:41;;;;;;;;;;;18.90;99.90;;;;;;5078826;28;19912;-81
2023/10/20 11:06:07;;;;;;;;;;;18.90;99.90;;;;;;5076621;28;19916;-81
2023/10/20 11:08:33;;;;;;;;;;;19.00;99.90;;;;;;5079057;28;19979;-80
2023/10/20 11:10:59;;;;;;;;;;;19.20;99.90;;;;;;5079641;28;19908;-78
2023/10/20 11:13:27;;;;;;;;;;;19.30;99.90;;;;;;5079123;28;19916;-80
2023/10/20 11:15:52;;;;;;;;;;;19.30;99.90;;;;;;5079503;28;20449;-79
2023/10/20 11:18:20;;;;;;;;;;;19.20;99.90;;;;;;5080037;28;19908;-80
2023/10/20 11:20:48;;;;;;;;;;;19.40;99.90;;;;;;5077490;28;19913;-78
2023/10/20 11:23:14;;;;;;;;;;;19.40;99.90;;;;;;5079701;28;20049;-80
2023/10/20 11:25:42;;;;;;;;;;;19.40;99.90;;;;;;5081520;28;19909;-78
2023/10/20 11:28:08;;;;;;;;;;;19.70;99.90;;;;;;5081934;28;19964;-79
2023/10/20 11:30:35;;;;;;;;;;;19.70;99.90;;;;;;5079000;28;19920;-76
2023/10/20 11:33:01;;;;;;;;;;;19.80;99.90;;;;;;5078594;28;19917;-80
2023/10/20 11:35:27;;;;;;;;;;;19.80;99.90;;;;;;5077303;28;20407;-79
2023/10/20 11:37:52;;;;;;;;;;;20.00;99.90;;;;;;5082276;28;19924;-77
2023/10/20 11:40:18;;;;;;;;;;;20.20;99.90;;;;;;5077686;28;19948;-79
2023/10/20 11:42:44;;;;;;;;;;;20.40;99.90;;;;;;5080927;28;19916;-78
2023/10/20 11:45:13;;;;;;;;;;;20.50;99.90;;;;;;5079714;28;19915;-78
2023/10/20 11:47:39;;;;;;;;;;;20.50;99.90;;;;;;5084313;28;20291;-77
2023/10/20 11:50:05;;;;;;;;;;;20.60;99.90;;;;;;5078207;28;19995;-77
2023/10/20 11:52:31;;;;;;;;;;;20.50;99.90;;;;;;5078676;28;19997;-77
2023/10/20 11:54:57;;;;;;;;;;;20.40;99.90;;;;;;5077618;28;19935;-77
2023/10/20 11:57:22;;;;;;;;;;;20.30;99.90;;;;;;5077772;28;19912;-78
2023/10/20 11:59:48;;;;;;;;;;;20.30;99.90;;;;;;5079244;28;19912;-78
2023/10/20 12:02:13;;;;;;;;;;;20.40;99.90;;;;;;5076928;28;19909;-82
2023/10/20 12:04:39;;;;;;;;;;;20.50;99.90;;;;;;5077767;28;19909;-76
2023/10/20 12:07:04;;;;;;;;;;;20.60;99.90;;;;;;5077117;28;19912;-79
2023/10/20 12:09:30;;;;;;;;;;;20.60;99.90;;;;;;5073401;28;19923;-79
2023/10/20 12:11:56;;;;;;;;;;;20.60;99.90;;;;;;5076528;28;20010;-80
2023/10/20 12:14:22;;;;;;;;;;;20.40;99.90;;;;;;5080199;28;19920;-78
2023/10/20 12:16:47;;;;;;;;;;;20.20;99.90;;;;;;5078755;28;19909;-78
2023/10/20 12:19:13;;;;;;;;;;;20.10;99.90;;;;;;5078837;28;19976;-79
2023/10/20 12:21:38;;;;;;;;;;;20.00;99.90;;;;;;5079377;28;20430;-77
2023/10/20 12:24:04;;;;;;;;;;;20.00;99.90;;;;;;5080723;28;20403;-83
2023/10/20 12:26:30;;;;;;;;;;;20.00;99.90;;;;;;5076675;28;19943;-78
2023/10/20 12:28:56;;;;;;;;;;;19.90;99.90;;;;;;5078719;28;19924;-76
2023/10/20 12:31:24;;;;;;;;;;;20.00;99.90;;;;;;5076103;28;19916;-77
2023/10/20 12:33:49;;;;;;;;;;;19.90;99.90;;;;;;5078643;28;20303;-78
2023/10/20 12:36:18;;;;;;;;;;;19.80;99.90;;;;;;5077286;28;20011;-85
2023/10/20 12:38:47;;;;;;;;;;;19.90;99.90;;;;;;5073901;28;19912;-77
2023/10/20 12:41:13;;;;;;;;;;;20.10;99.90;;;;;;5076747;28;20011;-86
2023/10/20 12:43:42;;;;;;;;;;;20.30;99.90;;;;;;5075773;28;19912;-80
2023/10/20 12:46:11;;;;;;;;;;;20.40;99.90;;;;;;5076623;28;19912;-78
2023/10/20 12:48:37;;;;;;;;;;;20.40;99.90;;;;;;5078375;28;19916;-77
2023/10/20 12:51:07;;;;;;;;;;;20.40;99.90;;;;;;5076427;28;19908;-77
2023/10/20 12:53:32;;;;;;;;;;;20.30;99.90;;;;;;5079687;28;19995;-76
2023/10/20 12:55:58;;;;;;;;;;;20.30;99.90;;;;;;5079708;28;20411;-76
2023/10/20 12:58:23;;;;;;;;;;;20.30;99.90;;;;;;5076425;28;20330;-76
2023/10/20 13:00:49;;;;;;;;;;;20.30;99.90;;;;;;5081395;28;19912;-76
2023/10/20 13:03:14;;;;;;;;;;;20.30;99.90;;;;;;5078041;28;19923;-77
2023/10/20 13:05:40;;;;;;;;;;;20.40;99.90;;;;;;5078580;28;19952;-75
2023/10/20 13:08:06;;;;;;;;;;;20.60;99.90;;;;;;5080243;28;19921;-77
2023/10/20 13:10:31;;;;;;;;;;;20.70;99.90;;;;;;5077513;28;20396;-80
2023/10/20 13:12:57;;;;;;;;;;;20.80;99.90;;;;;;5076534;28;19967;-78
2023/10/20 13:15:24;;;;;;;;;;;20.80;99.90;;;;;;5083005;28;19913;-77
2023/10/20 13:17:50;;;;;;;;;;;20.70;99.90;;;;;;5075225;28;19966;-80
2023/10/20 13:20:16;;;;;;;;;;;20.60;99.90;;;;;;5078175;28;19968;-77
2023/10/20 13:22:42;;;;;;;;;;;20.50;99.90;;;;;;5079340;28;19908;-81
2023/10/20 13:25:07;;;;;;;;;;;20.40;99.90;;;;;;5079980;28;19959;-77
2023/10/20 13:27:33;;;;;;;;;;;20.30;99.90;;;;;;5076167;28;19921;-79
2023/10/20 13:30:03;;;;;;;;;;;20.30;99.90;;;;;;5079601;28;19917;-79
2023/10/20 13:32:28;;;;;;;;;;;20.40;99.90;;;;;;5078376;28;19920;-80
2023/10/20 13:34:55;;;;;;;;;;;20.30;99.90;;;;;;5074571;28;20618;-78
2023/10/20 13:37:21;;;;;;;;;;;20.10;99.90;;;;;;5079219;28;19916;-78
2023/10/20 13:39:48;;;;;;;;;;;19.70;99.90;;;;;;5074849;28;20455;-80
2023/10/20 13:42:13;;;;;;;;;;;19.50;99.90;;;;;;5072074;28;19912;-83
2023/10/20 13:44:39;;;;;;;;;;;19.30;99.90;;;;;;5075348;28;19923;-78
2023/10/20 13:47:05;;;;;;;;;;;19.20;99.90;;;;;;5076296;28;19912;-81
2023/10/20 13:49:30;;;;;;;;;;;19.40;99.90;;;;;;5076387;28;19919;-78
2023/10/20 13:51:56;;;;;;;;;;;19.50;99.90;;;;;;5077781;28;19939;-78
2023/10/20 13:54:22;;;;;;;;;;;19.60;99.90;;;;;;5075665;28;19909;-80
2023/10/20 13:56:47;;;;;;;;;;;19.60;99.90;;;;;;5079772;28;19909;-80
2023/10/20 13:59:15;;;;;;;;;;;19.60;99.90;;;;;;5076269;28;19915;-78
2023/10/20 14:01:41;;;;;;;;;;;19.60;99.90;;;;;;5076103;28;19934;-79
2023/10/20 14:04:07;;;;;;;;;;;19.60;99.90;;;;;;5077846;28;19962;-78
2023/10/20 14:06:33;;;;;;;;;;;19.70;99.90;;;;;;5080537;28;19909;-80
2023/10/20 14:08:58;;;;;;;;;;;19.70;99.90;;;;;;5076988;28;19966;-78
2023/10/20 14:11:24;;;;;;;;;;;19.70;99.90;;;;;;5076221;28;19945;-79
2023/10/20 14:13:49;;;;;;;;;;;19.60;99.90;;;;;;5077650;28;20477;-78
2023/10/20 14:16:15;;;;;;;;;;;19.50;99.90;;;;;;5080952;28;19916;-77
2023/10/20 14:18:41;;;;;;;;;;;19.40;99.90;;;;;;5074226;28;19908;-78
2023/10/20 14:21:06;;;;;;;;;;;19.30;99.90;;;;;;5077935;28;19999;-78
2023/10/20 14:23:35;;;;;;;;;;;19.20;99.90;;;;;;5080143;28;20008;-76
2023/10/20 14:26:01;;;;;;;;;;;19.20;99.90;;;;;;5077456;28;19919;-77
2023/10/20 14:28:33;;;;;;;;;;;19.10;99.90;;;;;;5075078;28;20018;-78
2023/10/20 14:30:59;;;;;;;;;;;19.10;99.90;;;;;;5079768;28;19913;-77
2023/10/20 14:33:25;;;;;;;;;;;19.00;99.90;;;;;;5076234;28;19919;-76
2023/10/20 14:35:50;;;;;;;;;;;18.90;99.90;;;;;;5075806;28;19908;-79